Time;durP1;ratioP1;P1;durP2;ratioP2;P2;SDS_P1;SDS_P2;PMS_P1;PMS_P2;Temp;Humidity;BMP_temperature;BMP_pressure;BME280_temperature;BME280_humidity;BME280_pressure;Samples;Min_cycle;Max_cycle;Signal;HPM_P1;HPM_P2
2023/07/04 00:01:24;;;;;;;3.33;2.43;;;18.20;92.90;;;;;;5051696;28;20539;-69
2023/07/04 00:03:54;;;;;;;3.03;2.43;;;18.10;93.10;;;;;;5051125;28;20464;-69
2023/07/04 00:06:25;;;;;;;5.47;2.80;;;18.10;93.30;;;;;;5051491;28;20505;-69
2023/07/04 00:08:53;;;;;;;4.50;3.30;;;18.00;93.70;;;;;;5051323;28;20469;-69
2023/07/04 00:11:21;;;;;;;2.37;2.17;;;18.00;93.90;;;;;;5051350;28;20507;-69
2023/07/04 00:13:51;;;;;;;3.97;2.37;;;17.90;94.00;;;;;;5051068;28;20471;-69
2023/07/04 00:16:20;;;;;;;2.53;1.93;;;17.80;94.30;;;;;;5051325;28;20456;-69
2023/07/04 00:18:48;;;;;;;3.23;2.43;;;17.80;94.80;;;;;;5046156;28;20443;-69
2023/07/04 00:21:16;;;;;;;4.10;2.50;;;17.70;95.10;;;;;;5031137;28;20447;-69
2023/07/04 00:23:46;;;;;;;3.80;2.50;;;17.70;95.30;;;;;;5030940;28;20492;-69
2023/07/04 00:26:17;;;;;;;2.40;2.20;;;17.70;95.60;;;;;;5031386;28;20448;-69
2023/07/04 00:28:45;;;;;;;4.13;2.13;;;17.60;95.80;;;;;;5031175;28;20456;-69
2023/07/04 00:31:17;;;;;;;3.00;2.03;;;17.50;96.00;;;;;;5030812;28;20491;-68
2023/07/04 00:33:46;;;;;;;2.97;2.37;;;17.50;96.20;;;;;;5031089;28;20457;-69
2023/07/04 00:36:16;;;;;;;2.50;1.97;;;17.50;96.10;;;;;;5030697;28;20440;-69
2023/07/04 00:38:48;;;;;;;2.83;2.20;;;17.60;96.40;;;;;;5031203;28;21006;-69
2023/07/04 00:41:21;;;;;;;3.40;2.10;;;17.70;96.40;;;;;;5031026;28;20464;-68
2023/07/04 00:43:59;;;;;;;2.33;1.70;;;17.70;96.30;;;;;;5030429;28;20464;-69
2023/07/04 00:46:38;;;;;;;2.40;2.20;;;17.70;96.20;;;;;;5031126;28;20447;-69
2023/07/04 00:49:22;;;;;;;3.00;1.77;;;17.80;96.30;;;;;;5030567;28;20529;-68
2023/07/04 00:52:00;;;;;;;2.63;2.30;;;17.80;96.40;;;;;;5030967;28;20449;-69
2023/07/04 00:54:34;;;;;;;2.47;1.93;;;17.80;96.40;;;;;;5030195;28;21017;-69
2023/07/04 00:57:06;;;;;;;2.63;1.87;;;17.90;96.50;;;;;;5031014;28;20433;-69
2023/07/04 00:59:37;;;;;;;3.83;2.50;;;17.90;96.90;;;;;;5030478;28;20444;-69
2023/07/04 01:02:07;;;;;;;3.17;2.30;;;17.90;96.90;;;;;;5030630;28;20445;-69
2023/07/04 01:04:35;;;;;;;2.63;2.07;;;17.90;96.90;;;;;;5029937;28;20544;-68
2023/07/04 01:07:15;;;;;;;3.07;2.20;;;17.90;97.00;;;;;;5030980;28;20463;-69
2023/07/04 01:09:49;;;;;;;3.27;2.03;;;18.00;97.20;;;;;;5030339;28;20472;-69
2023/07/04 01:12:18;;;;;;;2.53;2.30;;;18.00;97.40;;;;;;5030585;28;20468;-69
2023/07/04 01:14:48;;;;;;;2.77;2.00;;;18.00;97.60;;;;;;5029929;28;20469;-69
2023/07/04 01:17:17;;;;;;;2.43;2.00;;;18.10;97.70;;;;;;5030472;28;20947;-69
2023/07/04 01:19:46;;;;;;;3.20;2.60;;;18.10;97.80;;;;;;5030381;28;20447;-69
2023/07/04 01:22:21;;;;;;;2.07;1.90;;;18.10;98.10;;;;;;5029836;28;20528;-69
2023/07/04 01:25:10;;;;;;;3.40;2.23;;;18.10;98.20;;;;;;5030217;28;20456;-69
2023/07/04 01:27:42;;;;;;;3.90;2.10;;;18.10;98.50;;;;;;5030524;28;20425;-69
2023/07/04 01:30:11;;;;;;;2.90;2.47;;;18.10;98.60;;;;;;5030444;28;20523;-69
2023/07/04 01:32:42;;;;;;;3.17;2.53;;;18.00;98.70;;;;;;5029800;28;20441;-69
2023/07/04 01:35:12;;;;;;;3.40;2.30;;;18.10;99.10;;;;;;5029979;28;20461;-69
2023/07/04 01:37:41;;;;;;;2.63;2.43;;;18.00;99.30;;;;;;5029906;28;20533;-69
2023/07/04 01:40:10;;;;;;;4.57;2.50;;;18.10;99.30;;;;;;5030041;28;20524;-69
2023/07/04 01:42:40;;;;;;;4.33;2.67;;;18.10;99.50;;;;;;5029814;28;20441;-69
2023/07/04 01:45:10;;;;;;;3.23;2.50;;;18.10;99.70;;;;;;5030214;28;20454;-69
2023/07/04 01:47:39;;;;;;;6.07;3.33;;;18.10;99.70;;;;;;5029864;28;20494;-69
2023/07/04 01:50:09;;;;;;;2.83;2.53;;;18.10;99.50;;;;;;5029716;28;20499;-69
2023/07/04 01:52:38;;;;;;;3.23;2.50;;;18.10;99.60;;;;;;5029868;28;20851;-69
2023/07/04 01:55:07;;;;;;;3.00;2.03;;;18.10;99.50;;;;;;5030291;28;20464;-69
2023/07/04 01:57:36;;;;;;;4.23;2.83;;;18.10;99.80;;;;;;5030181;28;20445;-69
2023/07/04 02:00:08;;;;;;;3.00;2.40;;;18.00;99.90;;;;;;5029741;28;20472;-69
2023/07/04 02:02:37;;;;;;;3.20;2.33;;;17.90;99.90;;;;;;5029181;28;20536;-69
2023/07/04 02:05:05;;;;;;;3.00;2.40;;;17.90;99.90;;;;;;5029448;28;20538;-69
2023/07/04 02:07:34;;;;;;;3.17;2.87;;;17.90;99.90;;;;;;5030448;28;20522;-69
2023/07/04 02:10:02;;;;;;;3.10;2.73;;;17.80;99.90;;;;;;5029888;28;20444;-69
2023/07/04 02:12:29;;;;;;;2.80;2.57;;;17.90;99.90;;;;;;5029749;28;20449;-69
2023/07/04 02:14:58;;;;;;;2.37;2.10;;;17.80;99.90;;;;;;5029909;28;20483;-69
2023/07/04 02:17:27;;;;;;;2.80;2.37;;;17.90;99.90;;;;;;5030197;28;20928;-69
2023/07/04 02:19:55;;;;;;;3.83;2.20;;;17.90;99.90;;;;;;5029971;28;20503;-69
2023/07/04 02:22:23;;;;;;;2.33;2.10;;;17.90;99.90;;;;;;5029749;28;20477;-69
2023/07/04 02:24:51;;;;;;;3.10;2.03;;;17.90;99.90;;;;;;5030398;28;20468;-69
2023/07/04 02:27:19;;;;;;;4.87;2.67;;;17.80;99.90;;;;;;5029438;28;20488;-69
2023/07/04 02:29:47;;;;;;;2.97;1.93;;;17.90;99.90;;;;;;5029824;28;20528;-69
2023/07/04 02:32:16;;;;;;;2.43;2.23;;;17.90;99.90;;;;;;5029072;28;20562;-69
2023/07/04 02:34:45;;;;;;;2.80;2.33;;;17.90;99.90;;;;;;5032956;28;20496;-68
2023/07/04 02:37:13;;;;;;;2.33;2.13;;;17.90;99.90;;;;;;5033092;28;21005;-69
2023/07/04 02:39:41;;;;;;;3.17;2.87;;;17.90;99.90;;;;;;5033175;28;20453;-69
2023/07/04 02:42:09;;;;;;;2.80;2.60;;;17.80;99.90;;;;;;5032884;28;20486;-69
2023/07/04 02:44:37;;;;;;;3.53;2.40;;;17.80;99.90;;;;;;5032769;28;20473;-68
2023/07/04 02:47:06;;;;;;;4.00;2.50;;;17.70;99.90;;;;;;5033182;28;20437;-69
2023/07/04 02:49:35;;;;;;;7.33;2.63;;;17.70;99.90;;;;;;5033165;28;20460;-68
2023/07/04 02:52:05;;;;;;;2.67;2.43;;;17.60;99.90;;;;;;5033208;28;20477;-69
2023/07/04 02:54:33;;;;;;;2.50;2.30;;;17.50;99.90;;;;;;5032763;28;20526;-69
2023/07/04 02:57:01;;;;;;;3.00;2.40;;;17.50;99.90;;;;;;5032880;28;20463;-68
2023/07/04 02:59:29;;;;;;;3.73;2.47;;;17.40;99.90;;;;;;5033188;28;20547;-69
2023/07/04 03:01:57;;;;;;;3.13;2.67;;;17.50;99.90;;;;;;5033461;28;21385;-69
2023/07/04 03:04:25;;;;;;;3.50;2.57;;;17.50;99.90;;;;;;5032741;28;21088;-69
2023/07/04 03:06:53;;;;;;;3.10;2.83;;;17.40;99.90;;;;;;5033371;28;20817;-69
2023/07/04 03:09:23;;;;;;;3.90;2.93;;;17.40;99.90;;;;;;5032642;28;20801;-69
2023/07/04 03:11:51;;;;;;;2.67;2.43;;;17.40;99.90;;;;;;5033398;28;21021;-69
2023/07/04 03:14:18;;;;;;;2.60;2.30;;;17.50;99.90;;;;;;5032610;28;20788;-70
2023/07/04 03:16:46;;;;;;;2.93;2.47;;;17.50;99.90;;;;;;5033171;28;20532;-69
2023/07/04 03:19:14;;;;;;;2.67;2.47;;;17.50;99.90;;;;;;5033439;28;20533;-69
2023/07/04 03:21:42;;;;;;;2.60;2.40;;;17.50;99.90;;;;;;5033111;28;20520;-68
2023/07/04 03:24:10;;;;;;;3.70;2.53;;;17.50;99.90;;;;;;5032063;28;21001;-69
2023/07/04 03:26:40;;;;;;;3.83;2.13;;;17.50;99.90;;;;;;5032805;28;20472;-69
2023/07/04 03:29:09;;;;;;;2.70;2.23;;;17.50;99.90;;;;;;5032668;28;20468;-69
2023/07/04 03:31:37;;;;;;;6.53;4.23;;;17.50;99.90;;;;;;5032412;28;20560;-69
2023/07/04 03:34:05;;;;;;;5.70;3.23;;;17.50;99.90;;;;;;5032275;28;20465;-69
2023/07/04 03:36:33;;;;;;;3.07;2.20;;;17.50;99.90;;;;;;5049474;28;20438;-69
2023/07/04 03:39:01;;;;;;;4.50;2.63;;;17.60;99.90;;;;;;5052738;28;20451;-69
2023/07/04 03:41:29;;;;;;;3.07;2.20;;;17.70;99.90;;;;;;5052363;28;20436;-68
2023/07/04 03:44:00;;;;;;;3.13;2.53;;;17.70;99.90;;;;;;5039140;28;20468;-68
2023/07/04 03:46:27;;;;;;;3.10;2.27;;;17.70;99.90;;;;;;5031636;28;20469;-70
2023/07/04 03:48:55;;;;;;;2.90;2.60;;;17.70;99.90;;;;;;5031877;28;20461;-69
2023/07/04 03:51:24;;;;;;;2.60;2.40;;;17.60;99.90;;;;;;5032391;28;20519;-69
2023/07/04 03:53:52;;;;;;;2.27;2.03;;;17.60;99.90;;;;;;5034436;28;20476;-69
2023/07/04 03:56:20;;;;;;;3.07;2.17;;;17.60;99.90;;;;;;5052317;28;21186;-69
2023/07/04 03:58:48;;;;;;;2.70;2.40;;;17.60;99.90;;;;;;5051729;28;20519;-69
2023/07/04 04:01:17;;;;;;;2.30;2.03;;;17.70;99.90;;;;;;5051887;28;20432;-69
2023/07/04 04:03:45;;;;;;;2.27;2.03;;;17.70;99.90;;;;;;5050972;28;20559;-69
2023/07/04 04:06:13;;;;;;;2.50;2.13;;;17.80;99.90;;;;;;5051637;28;20482;-68
2023/07/04 04:08:41;;;;;;;4.70;2.23;;;17.90;99.90;;;;;;5051748;28;20815;-68
2023/07/04 04:11:09;;;;;;;2.10;2.00;;;18.00;99.90;;;;;;5051278;28;20466;-68
2023/07/04 04:13:37;;;;;;;2.20;2.00;;;18.00;99.90;;;;;;5051037;28;20462;-69
2023/07/04 04:16:05;;;;;;;2.60;2.10;;;18.00;99.90;;;;;;5051130;28;20464;-68
2023/07/04 04:18:34;;;;;;;3.03;2.40;;;18.00;99.90;;;;;;5051360;28;20443;-68
2023/07/04 04:21:02;;;;;;;3.47;2.37;;;17.90;99.90;;;;;;5050987;28;20436;-69
2023/07/04 04:23:30;;;;;;;2.83;2.20;;;18.00;99.90;;;;;;5051006;28;20440;-69
2023/07/04 04:25:58;;;;;;;3.77;2.40;;;18.00;99.90;;;;;;5051133;28;20487;-69
2023/07/04 04:28:26;;;;;;;2.57;2.37;;;18.00;99.90;;;;;;5051101;28;20444;-69
2023/07/04 04:30:54;;;;;;;1.93;1.73;;;18.10;99.90;;;;;;5050950;28;20965;-69
2023/07/04 04:33:23;;;;;;;2.27;1.77;;;18.20;99.90;;;;;;5050464;28;20490;-66
2023/07/04 04:35:52;;;;;;;4.00;2.53;;;18.20;99.90;;;;;;5051111;28;20868;-69
2023/07/04 04:38:20;;;;;;;3.80;2.40;;;18.20;99.90;;;;;;5050684;28;20440;-69
2023/07/04 04:40:50;;;;;;;2.50;1.90;;;18.40;99.90;;;;;;5051051;28;20444;-68
2023/07/04 04:43:18;;;;;;;2.70;2.00;;;18.50;99.90;;;;;;5024293;28;20496;-66
2023/07/04 04:45:46;;;;;;;3.50;2.57;;;18.50;99.90;;;;;;5030562;28;20482;-67
2023/07/04 04:48:18;;;;;;;2.30;2.07;;;18.60;99.90;;;;;;5029485;28;20488;-69
2023/07/04 04:50:47;;;;;;;3.17;2.03;;;18.50;99.90;;;;;;5030837;28;20437;-69
2023/07/04 04:53:17;;;;;;;4.63;2.37;;;18.50;99.90;;;;;;5029314;28;20908;-68
2023/07/04 04:55:45;;;;;;;2.60;2.27;;;18.60;99.90;;;;;;5030903;28;20889;-69
2023/07/04 04:58:13;;;;;;;2.60;2.30;;;18.70;99.90;;;;;;5028656;28;20472;-68
2023/07/04 05:00:41;;;;;;;2.03;1.83;;;18.80;99.90;;;;;;5029534;28;20499;-69
2023/07/04 05:03:09;;;;;;;2.83;2.53;;;18.70;99.90;;;;;;5030221;28;20502;-68
2023/07/04 05:05:37;;;;;;;2.60;2.20;;;18.80;99.90;;;;;;5030230;28;20476;-68
2023/07/04 05:08:05;;;;;;;3.57;2.43;;;18.90;99.90;;;;;;5030541;28;20539;-68
2023/07/04 05:10:35;;;;;;;4.33;2.43;;;19.00;99.90;;;;;;5029339;28;20459;-69
2023/07/04 05:13:03;;;;;;;2.97;2.70;;;19.10;99.90;;;;;;5029449;28;20477;-69
2023/07/04 05:15:31;;;;;;;4.00;2.57;;;19.20;99.90;;;;;;5029976;28;20500;-69
2023/07/04 05:17:59;;;;;;;2.40;2.10;;;19.30;99.90;;;;;;5030412;28;20472;-69
2023/07/04 05:20:28;;;;;;;4.53;2.50;;;19.40;99.90;;;;;;5027588;28;20456;-68
2023/07/04 05:22:56;;;;;;;2.20;2.00;;;19.50;99.90;;;;;;5025557;28;21229;-68
2023/07/04 05:25:24;;;;;;;2.97;2.20;;;19.50;99.70;;;;;;5030018;28;20454;-67
2023/07/04 05:27:53;;;;;;;3.10;2.30;;;19.60;99.90;;;;;;5029978;28;20445;-68
2023/07/04 05:30:24;;;;;;;4.63;2.57;;;19.60;99.70;;;;;;5028559;28;20445;-68
2023/07/04 05:32:52;;;;;;;2.90;2.00;;;19.80;99.20;;;;;;5029675;28;20477;-68
2023/07/04 05:35:20;;;;;;;3.07;2.20;;;19.90;99.10;;;;;;5029410;28;20461;-67
2023/07/04 05:37:48;;;;;;;3.97;2.23;;;19.90;98.90;;;;;;5029847;28;20495;-68
2023/07/04 05:40:16;;;;;;;3.33;2.53;;;20.00;98.60;;;;;;5030024;28;20452;-68
2023/07/04 05:42:44;;;;;;;3.67;2.60;;;19.90;98.30;;;;;;5029607;28;20445;-68
2023/07/04 05:45:14;;;;;;;4.13;2.87;;;19.90;98.40;;;;;;5029739;28;21001;-68
2023/07/04 05:47:42;;;;;;;4.17;3.33;;;19.80;99.90;;;;;;5029677;28;20441;-68
2023/07/04 05:50:10;;;;;;;5.27;2.20;;;19.80;99.30;;;;;;5029589;28;20453;-68
2023/07/04 05:52:38;;;;;;;2.43;2.23;;;19.90;97.50;;;;;;5029219;28;21081;-70
2023/07/04 05:55:07;;;;;;;3.90;2.83;;;20.10;96.20;;;;;;5029034;28;20465;-69
2023/07/04 05:57:35;;;;;;;3.60;2.33;;;20.10;96.00;;;;;;5029597;28;20437;-69
2023/07/04 06:00:05;;;;;;;2.93;2.23;;;20.10;95.90;;;;;;5029676;28;20448;-69
2023/07/04 06:02:34;;;;;;;3.87;2.30;;;20.10;95.50;;;;;;5029433;28;20935;-69
2023/07/04 06:05:02;;;;;;;3.70;2.20;;;20.00;95.50;;;;;;5029604;28;20461;-70
2023/07/04 06:07:31;;;;;;;4.00;2.30;;;20.20;95.70;;;;;;5029526;28;20449;-69
2023/07/04 06:09:59;;;;;;;4.53;2.67;;;20.30;95.40;;;;;;5029611;28;20457;-70
2023/07/04 06:12:30;;;;;;;3.30;2.20;;;20.50;94.50;;;;;;5029110;28;20519;-69
2023/07/04 06:14:58;;;;;;;3.00;2.30;;;20.60;94.10;;;;;;5029535;28;21028;-69
2023/07/04 06:17:26;;;;;;;5.93;2.67;;;20.70;93.40;;;;;;5029791;28;20437;-69
2023/07/04 06:19:56;;;;;;;2.73;2.50;;;20.70;93.60;;;;;;5029732;28;20436;-69
2023/07/04 06:22:24;;;;;;;5.53;2.80;;;20.90;93.10;;;;;;5029322;28;20437;-69
2023/07/04 06:24:52;;;;;;;3.20;2.57;;;21.20;92.80;;;;;;5029278;28;20492;-69
2023/07/04 06:27:20;;;;;;;3.97;2.77;;;21.40;91.30;;;;;;5029483;28;20524;-69
2023/07/04 06:29:48;;;;;;;6.10;2.43;;;21.70;90.90;;;;;;5029617;28;20445;-69
2023/07/04 06:32:16;;;;;;;5.43;2.77;;;21.90;87.20;;;;;;5029524;28;20448;-69
2023/07/04 06:34:44;;;;;;;3.90;2.20;;;21.80;87.20;;;;;;5029068;28;20492;-69
2023/07/04 06:37:14;;;;;;;3.43;2.33;;;21.70;84.40;;;;;;5029495;28;20874;-70
2023/07/04 06:39:43;;;;;;;4.70;2.57;;;21.60;84.80;;;;;;5029355;28;20462;-70
2023/07/04 06:42:11;;;;;;;3.00;2.60;;;21.60;84.80;;;;;;5029397;28;20441;-69
2023/07/04 06:44:39;;;;;;;7.73;3.67;;;21.70;80.50;;;;;;5029107;28;20899;-69
2023/07/04 06:47:07;;;;;;;5.90;3.20;;;21.80;79.70;;;;;;5029242;28;20445;-69
2023/07/04 06:49:35;;;;;;;5.30;3.67;;;22.10;75.40;;;;;;5029342;28;20536;-70
2023/07/04 06:52:03;;;;;;;8.90;3.37;;;22.40;74.40;;;;;;5029504;28;20441;-69
2023/07/04 06:54:34;;;;;;;5.07;3.37;;;22.70;73.90;;;;;;5029418;28;20490;-69
2023/07/04 06:57:04;;;;;;;7.00;3.53;;;22.70;69.40;;;;;;5029245;28;20445;-69
2023/07/04 06:59:32;;;;;;;6.93;4.30;;;22.60;69.30;;;;;;5029340;28;20967;-68
2023/07/04 07:02:00;;;;;;;6.23;3.17;;;22.50;69.40;;;;;;5029363;28;20495;-69
2023/07/04 07:04:28;;;;;;;6.90;3.63;;;22.70;69.40;;;;;;5029200;28;20535;-69
2023/07/04 07:06:56;;;;;;;6.30;3.33;;;22.80;70.20;;;;;;5029646;28;20535;-69
2023/07/04 07:09:25;;;;;;;5.80;3.30;;;22.80;66.90;;;;;;5029356;28;20441;-68
2023/07/04 07:11:54;;;;;;;7.27;3.90;;;22.90;66.90;;;;;;5029283;28;20526;-69
2023/07/04 07:14:22;;;;;;;5.60;3.97;;;23.00;66.90;;;;;;5028877;28;20884;-69
2023/07/04 07:16:55;;;;;;;6.70;3.60;;;23.10;65.30;;;;;;5029073;28;20445;-69
2023/07/04 07:19:24;;;;;;;7.00;3.70;;;23.30;65.80;;;;;;5029332;28;20548;-69
2023/07/04 07:21:52;;;;;;;7.23;3.73;;;23.50;63.90;;;;;;5032569;28;20441;-69
2023/07/04 07:24:20;;;;;;;7.80;3.50;;;23.50;62.10;;;;;;5032292;28;20515;-69
2023/07/04 07:26:47;;;;;;;5.97;3.37;;;23.40;60.10;;;;;;5032456;28;20440;-69
2023/07/04 07:29:17;;;;;;;7.07;3.40;;;23.30;60.40;;;;;;5032561;28;20473;-69
2023/07/04 07:31:47;;;;;;;5.20;4.00;;;23.50;62.40;;;;;;5032755;28;20449;-69
2023/07/04 07:34:16;;;;;;;4.37;3.50;;;23.50;61.80;;;;;;5032249;28;20481;-69
2023/07/04 07:36:46;;;;;;;4.97;3.10;;;23.30;61.20;;;;;;5028603;28;20457;-70
2023/07/04 07:39:15;;;;;;;7.80;3.83;;;23.40;63.50;;;;;;5031343;28;20987;-70
2023/07/04 07:41:45;;;;;;;5.87;3.60;;;23.50;61.90;;;;;;5031806;28;20445;-70
2023/07/04 07:44:14;;;;;;;8.33;3.40;;;23.20;62.80;;;;;;5032876;28;20523;-70
2023/07/04 07:46:44;;;;;;;9.33;3.73;;;23.50;63.90;;;;;;5031302;28;20974;-70
2023/07/04 07:49:12;;;;;;;5.90;3.67;;;24.10;61.50;;;;;;5031307;28;20461;-69
2023/07/04 07:51:41;;;;;;;6.37;4.00;;;24.30;59.60;;;;;;5031607;28;20449;-69
2023/07/04 07:54:10;;;;;;;5.77;3.87;;;24.40;60.00;;;;;;5031721;28;20480;-69
2023/07/04 07:56:41;;;;;;;5.60;4.20;;;24.20;59.00;;;;;;5031964;28;20535;-69
2023/07/04 07:59:09;;;;;;;7.50;4.27;;;24.30;60.60;;;;;;5031863;28;20892;-70
2023/07/04 08:01:38;;;;;;;6.45;4.20;;;24.40;59.90;;;;;;5031629;28;20441;-70
2023/07/04 08:04:07;;;;;;;6.70;4.20;;;24.40;61.10;;;;;;5031566;28;20218;-69
2023/07/04 08:06:38;;;;;;;4.97;3.60;;;24.30;60.30;;;;;;5024859;28;20453;-69
2023/07/04 08:09:08;;;;;;;6.57;3.50;;;24.40;60.60;;;;;;5029036;28;20438;-70
2023/07/04 08:11:37;;;;;;;4.47;3.60;;;24.70;62.10;;;;;;5027612;28;20461;-69
2023/07/04 08:14:06;;;;;;;5.07;3.90;;;24.90;60.60;;;;;;5026298;28;21046;-70
2023/07/04 08:16:43;;;;;;;6.10;3.67;;;25.20;59.50;;;;;;5026448;28;20469;-70
2023/07/04 08:19:15;;;;;;;5.93;4.23;;;25.40;59.40;;;;;;5031155;28;20445;-70
2023/07/04 08:21:43;;;;;;;9.60;4.73;;;25.50;57.90;;;;;;5030758;28;20499;-70
2023/07/04 08:24:12;;;;;;;9.17;3.57;;;25.20;57.20;;;;;;5030782;28;20457;-70
2023/07/04 08:26:45;;;;;;;7.60;4.33;;;25.00;57.40;;;;;;5031126;28;20441;-70
2023/07/04 08:29:16;;;;;;;8.63;4.13;;;25.00;57.60;;;;;;5031435;28;20536;-70
2023/07/04 08:31:44;;;;;;;4.80;4.10;;;25.20;62.60;;;;;;5031285;28;20869;-71
2023/07/04 08:34:13;;;;;;;9.10;4.77;;;25.40;57.30;;;;;;5030743;28;20982;-70
2023/07/04 08:36:44;;;;;;;6.97;4.40;;;25.00;57.40;;;;;;5031747;28;20486;-70
2023/07/04 08:39:12;;;;;;;8.00;4.53;;;25.10;59.90;;;;;;5031656;28;20456;-70
2023/07/04 08:41:45;;;;;;;6.13;4.40;;;25.00;58.20;;;;;;5031849;28;20467;-70
2023/07/04 08:44:18;;;;;;;7.37;4.40;;;25.30;58.40;;;;;;5030932;28;20556;-69
2023/07/04 08:46:50;;;;;;;5.10;4.27;;;25.10;57.50;;;;;;5031747;28;20501;-71
2023/07/04 08:49:34;;;;;;;8.40;4.33;;;24.90;58.60;;;;;;5031580;28;20492;-70
2023/07/04 08:52:09;;;;;;;8.20;4.47;;;24.70;57.80;;;;;;5031722;28;20445;-69
2023/07/04 08:54:40;;;;;;;7.00;4.43;;;25.00;59.10;;;;;;5031058;28;20472;-69
2023/07/04 08:57:26;;;;;;;6.63;4.77;;;25.40;58.40;;;;;;5031598;28;20451;-69
2023/07/04 09:00:04;;;;;;;5.83;4.90;;;25.80;57.00;;;;;;5031774;28;20476;-69
2023/07/04 09:03:03;;;;;;;7.20;5.33;;;25.60;55.50;;;;;;5031488;28;20444;-69
2023/07/04 09:05:43;;;;;;;7.50;5.20;;;25.00;56.30;;;;;;5031371;28;20459;-69
2023/07/04 09:08:18;;;;;;;6.30;5.10;;;25.10;57.70;;;;;;5031370;28;20432;-69
2023/07/04 09:10:49;;;;;;;7.40;4.90;;;25.40;56.10;;;;;;5031050;28;20523;-69
2023/07/04 09:13:26;;;;;;;6.70;4.47;;;25.90;56.40;;;;;;5030944;28;20429;-69
2023/07/04 09:15:58;;;;;;;6.23;5.53;;;26.40;56.30;;;;;;5030578;28;20472;-70
2023/07/04 09:18:35;;;;;;;6.60;4.90;;;26.50;55.50;;;;;;5030614;28;20445;-70
2023/07/04 09:21:09;;;;;;;7.97;5.43;;;25.90;54.90;;;;;;5028266;28;20452;-69
2023/07/04 09:23:38;;;;;;;4.87;4.37;;;25.30;56.40;;;;;;5028623;28;20871;-69
2023/07/04 09:26:10;;;;;;;9.47;5.03;;;24.80;57.30;;;;;;5029744;28;20548;-69
2023/07/04 09:28:41;;;;;;;7.30;4.70;;;24.20;57.90;;;;;;5030150;28;20528;-69
2023/07/04 09:31:14;;;;;;;7.33;4.40;;;23.80;59.30;;;;;;5029966;28;20492;-70
2023/07/04 09:33:44;;;;;;;8.63;4.53;;;23.70;59.30;;;;;;5029516;28;21031;-70
2023/07/04 09:36:14;;;;;;;7.07;5.60;;;23.70;59.80;;;;;;5029836;28;20477;-71
2023/07/04 09:38:53;;;;;;;7.60;5.13;;;23.50;60.00;;;;;;5030021;28;20534;-70
2023/07/04 09:41:25;;;;;;;7.70;4.40;;;23.40;60.50;;;;;;5030018;28;20539;-71
2023/07/04 09:43:55;;;;;;;7.90;4.73;;;23.50;61.30;;;;;;5029280;28;20452;-71
2023/07/04 09:46:26;;;;;;;7.50;4.47;;;23.90;62.10;;;;;;5029458;28;20437;-72
2023/07/04 09:48:56;;;;;;;5.00;4.10;;;24.20;60.00;;;;;;5029637;28;20452;-70
2023/07/04 09:51:28;;;;;;;9.43;4.93;;;24.40;59.20;;;;;;5030023;28;20437;-70
2023/07/04 09:54:11;;;;;;;8.27;5.40;;;24.20;59.20;;;;;;5029465;28;20526;-71
2023/07/04 09:56:39;;;;;;;6.57;5.53;;;24.10;57.60;;;;;;5027282;28;20441;-71
2023/07/04 09:59:13;;;;;;;7.83;5.47;;;23.90;57.70;;;;;;5029520;28;20441;-72
2023/07/04 10:01:43;;;;;;;5.83;4.50;;;23.70;58.80;;;;;;5029467;28;20433;-72
2023/07/04 10:04:14;;;;;;;8.93;5.10;;;23.70;59.50;;;;;;5027770;28;20479;-71
2023/07/04 10:06:44;;;;;;;6.13;5.03;;;24.00;59.50;;;;;;5029803;28;20458;-71
2023/07/04 10:09:18;;;;;;;5.90;4.63;;;24.30;58.20;;;;;;5029651;28;20451;-72
2023/07/04 10:11:48;;;;;;;9.27;5.80;;;24.80;58.10;;;;;;5029613;28;20523;-71
2023/07/04 10:14:18;;;;;;;7.20;6.50;;;25.30;56.80;;;;;;5029375;28;21083;-71
2023/07/04 10:16:48;;;;;;;7.70;5.83;;;26.10;54.90;;;;;;5029966;28;20519;-71
2023/07/04 10:19:20;;;;;;;7.30;6.10;;;26.70;52.90;;;;;;5029810;28;20436;-71
2023/07/04 10:21:52;;;;;;;8.30;6.30;;;27.40;53.70;;;;;;5029624;28;20834;-72
2023/07/04 10:24:21;;;;;;;7.40;6.57;;;28.80;49.30;;;;;;5029140;28;21007;-71
2023/07/04 10:26:58;;;;;;;8.43;5.87;;;29.30;45.70;;;;;;5029935;28;20441;-71
2023/07/04 10:29:31;;;;;;;8.70;6.33;;;29.30;45.40;;;;;;5029533;28;21128;-72
2023/07/04 10:32:03;;;;;;;9.17;5.90;;;29.80;44.60;;;;;;5029493;28;20444;-71
2023/07/04 10:34:34;;;;;;;7.77;6.30;;;30.70;44.90;;;;;;5029002;28;20500;-71
2023/07/04 10:37:05;;;;;;;8.07;6.17;;;31.10;43.20;;;;;;5029269;28;20441;-73
2023/07/04 10:39:37;;;;;;;7.77;6.37;;;31.30;43.90;;;;;;5029844;28;20432;-72
2023/07/04 10:42:14;;;;;;;8.90;6.67;;;30.20;43.00;;;;;;5028912;28;20864;-73
2023/07/04 10:44:47;;;;;;;6.17;5.53;;;29.10;44.50;;;;;;5027361;28;20467;-72
2023/07/04 10:47:24;;;;;;;7.87;6.00;;;27.90;46.90;;;;;;5033615;28;20453;-72
2023/07/04 10:49:57;;;;;;;7.53;6.30;;;26.90;49.30;;;;;;5029138;28;20955;-73
2023/07/04 10:52:31;;;;;;;9.60;6.30;;;26.30;49.70;;;;;;5028876;28;20456;-72
2023/07/04 10:55:00;;;;;;;9.63;6.60;;;25.60;51.00;;;;;;5029937;28;20479;-73
2023/07/04 10:57:33;;;;;;;8.07;6.20;;;25.70;51.50;;;;;;5032778;28;20472;-71
2023/07/04 11:00:08;;;;;;;7.40;6.47;;;26.40;51.80;;;;;;5032751;28;20525;-70
2023/07/04 11:02:40;;;;;;;8.77;5.87;;;27.00;48.90;;;;;;5032442;28;20440;-72
2023/07/04 11:05:13;;;;;;;8.23;7.00;;;27.50;49.70;;;;;;5032678;28;20453;-70
2023/07/04 11:07:44;;;;;;;7.00;6.10;;;28.60;49.40;;;;;;5032574;28;20437;-71
2023/07/04 11:10:14;;;;;;;9.13;6.20;;;29.60;45.70;;;;;;5016680;28;20518;-71
2023/07/04 11:12:42;;;;;;;7.23;6.40;;;30.50;43.30;;;;;;5032205;28;20433;-69
2023/07/04 11:15:22;;;;;;;7.27;5.80;;;31.30;44.40;;;;;;5032688;28;20481;-70
2023/07/04 11:17:51;;;;;;;6.70;6.00;;;32.40;40.90;;;;;;5032537;28;20738;-70
2023/07/04 11:20:24;;;;;;;7.60;6.90;;;33.10;39.30;;;;;;5032403;28;20460;-70
2023/07/04 11:23:00;;;;;;;9.93;6.93;;;33.30;39.60;;;;;;5031926;28;20433;-72
2023/07/04 11:25:53;;;;;;;7.50;6.80;;;32.70;37.10;;;;;;5032280;28;20465;-72
2023/07/04 11:28:26;;;;;;;7.47;6.20;;;30.90;39.80;;;;;;5017871;28;20487;-72
2023/07/04 11:31:08;;;;;;;8.17;6.67;;;30.00;40.70;;;;;;5032407;28;20509;-71
2023/07/04 11:33:42;;;;;;;9.97;7.40;;;28.80;41.90;;;;;;5032501;28;20476;-71
2023/07/04 11:36:18;;;;;;;11.00;7.57;;;27.60;44.80;;;;;;5032692;28;20725;-71
2023/07/04 11:38:52;;;;;;;9.40;7.00;;;26.70;45.90;;;;;;5032438;28;20433;-71
2023/07/04 11:41:28;;;;;;;10.30;7.33;;;26.20;47.10;;;;;;5031713;28;20449;-71
2023/07/04 11:44:00;;;;;;;7.80;6.67;;;25.70;47.70;;;;;;5010569;28;21058;-71
2023/07/04 11:46:30;;;;;;;9.60;6.73;;;25.90;48.00;;;;;;5028886;28;20433;-71
2023/07/04 11:48:58;;;;;;;8.43;7.57;;;26.70;46.70;;;;;;5033123;28;20449;-71
2023/07/04 11:51:30;;;;;;;8.90;7.40;;;26.80;46.10;;;;;;5032330;28;20539;-71
2023/07/04 11:54:02;;;;;;;7.90;6.50;;;27.00;45.70;;;;;;5031961;28;20805;-68
2023/07/04 11:56:38;;;;;;;8.10;6.77;;;27.10;45.10;;;;;;5031758;28;20563;-67
2023/07/04 11:59:25;;;;;;;9.30;7.13;;;27.40;44.80;;;;;;5030103;28;20536;-67
2023/07/04 12:02:14;;;;;;;7.70;7.00;;;28.70;43.60;;;;;;5027482;28;20451;-70
2023/07/04 12:04:47;;;;;;;9.43;6.67;;;29.30;41.80;;;;;;5025650;28;20467;-70
2023/07/04 12:07:21;;;;;;;10.73;6.93;;;28.60;42.50;;;;;;5023800;28;20441;-69
2023/07/04 12:09:56;;;;;;;8.90;6.10;;;27.60;43.30;;;;;;5027414;28;20433;-70
2023/07/04 12:12:28;;;;;;;8.43;6.30;;;27.10;44.90;;;;;;5026875;28;20536;-71
2023/07/04 12:15:02;;;;;;;7.83;6.80;;;26.80;45.70;;;;;;5027347;28;20465;-70
2023/07/04 12:17:30;;;;;;;7.67;6.83;;;26.80;45.10;;;;;;5027938;28;20530;-71
2023/07/04 12:20:08;;;;;;;8.20;6.83;;;26.70;45.10;;;;;;5027092;28;20448;-71
2023/07/04 12:22:36;;;;;;;11.13;6.37;;;26.50;45.10;;;;;;5027073;28;20441;-73
2023/07/04 12:25:18;;;;;;;8.33;7.53;;;26.40;46.00;;;;;;5027024;28;20459;-71
2023/07/04 12:27:47;;;;;;;11.60;8.03;;;26.30;45.80;;;;;;5026450;28;20453;-71
2023/07/04 12:30:16;;;;;;;8.80;7.00;;;26.90;46.10;;;;;;5027143;28;20445;-71
2023/07/04 12:32:44;;;;;;;11.20;7.70;;;27.60;44.50;;;;;;5026757;28;20510;-71
2023/07/04 12:35:26;;;;;;;9.73;7.40;;;27.70;43.80;;;;;;5027103;28;20503;-71
2023/07/04 12:37:57;;;;;;;8.30;7.43;;;27.00;43.90;;;;;;5027033;28;20441;-70
2023/07/04 12:40:28;;;;;;;10.90;7.23;;;26.60;44.60;;;;;;5027365;28;20445;-71
2023/07/04 12:42:57;;;;;;;8.97;7.80;;;26.40;44.50;;;;;;5026217;28;21156;-72
2023/07/04 12:45:45;;;;;;;8.53;7.40;;;26.70;45.10;;;;;;5026138;28;20445;-72
2023/07/04 12:48:17;;;;;;;10.97;7.07;;;27.00;43.90;;;;;;4944355;28;20586;-71
2023/07/04 12:50:52;;;;;;;7.57;6.63;;;27.30;43.70;;;;;;4946311;28;20951;-71
2023/07/04 12:53:20;;;;;;;7.70;7.00;;;28.50;42.30;;;;;;4945723;28;20455;-72
2023/07/04 12:55:51;;;;;;;8.60;7.10;;;30.20;39.40;;;;;;4945671;28;20476;-72
2023/07/04 12:58:19;;;;;;;8.10;6.93;;;31.50;37.50;;;;;;4946077;28;20857;-71
2023/07/04 13:01:03;;;;;;;7.20;6.50;;;32.80;36.50;;;;;;4945753;28;20468;-71
2023/07/04 13:03:32;;;;;;;6.50;5.90;;;32.80;38.70;;;;;;4945402;28;20452;-71